Flight Track Log - Related Links

Times and Time Zones

All times are in EDT time to prevent confusion due to time zone crossing. See the SWA104 flight status page for this flight to view local times or setup timezone preferences in your user account.

Time Position Orientation Groundspeed Altitude Reporting Facility
EDT Latitude Longitude Course Direction KTS MPH feet Rate Location/Type
Thu 09:33:30 PM 42.9500 -71.4500 348° North 154 177 1,700  Level KA90
Thu 09:34:40 PM 43.0047 -71.4664 348° North 181 208 5,000 3,508 Climbing Boston Center
Thu 09:35:40 PM 43.0228 -71.3808 74° East 156 180 9,300 4,000 Climbing Boston Center
Thu 09:36:40 PM 43.0347 -71.3094 77° East 199 229 13,000 3,800 Climbing Boston Center
Thu 09:37:40 PM 43.0500 -71.1872 80° East 263 303 16,900 3,400 Climbing Boston Center
Thu 09:38:40 PM 43.0717 -71.0731 75° East 295 339 19,800 2,850 Climbing Boston Center
Thu 09:39:40 PM 43.0639 -70.9539 95° East 309 356 22,600 2,500 Climbing Boston Center
Thu 09:40:40 PM 42.9858 -70.8847 147° Southeast 287 330 24,800 2,150 Climbing Boston Center
Thu 09:41:40 PM 42.8967 -70.9181 195° South 264 304 26,900 2,150 Climbing Boston Center
Thu 09:42:40 PM 42.8100 -70.9883 211° Southwest 298 343 29,100 1,850 Climbing Boston Center
Thu 09:43:40 PM 42.7511 -71.1000 234° Southwest 321 369 30,600 950 Climbing Boston Center
Thu 09:44:40 PM 42.6897 -71.2086 232° Southwest 336 387 31,000 200 Climbing Boston Center
Thu 09:45:40 PM 42.6303 -71.3169 233° Southwest 355 409 31,000 750 Level Boston Center
Thu 09:46:40 PM 42.5772 -71.4139 233° Southwest 367 422 32,500 1,500 Climbing Boston Center
Thu 09:47:40 PM 42.5175 -71.5161 232° Southwest 367 422 34,000 750 Climbing Boston Center
Thu 09:48:40 PM 42.4494 -71.6183 228° Southwest 367 422 34,000  Level Boston Center
Thu 09:49:40 PM 42.3897 -71.7261 233° Southwest 367 422 34,000  Level Boston Center
Thu 09:50:40 PM 42.3300 -71.8278 232° Southwest 367 422 34,000  Level Boston Center
Thu 09:51:40 PM 42.2681 -71.9322 231° Southwest 367 422 34,000  Level Boston Center
Thu 09:52:40 PM 42.2058 -72.0422 233° Southwest 367 422 34,000  Level Boston Center
Thu 09:53:40 PM 42.1417 -72.1461 230° Southwest 367 422 34,000  Level Boston Center
Thu 09:54:40 PM 42.0814 -72.2528 233° Southwest 367 422 34,000  Level Boston Center
Thu 09:55:40 PM 42.0189 -72.3561 231° Southwest 372 428 34,000  Level Boston Center
Thu 09:56:40 PM 41.9564 -72.4653 232° Southwest 372 428 34,000  Level Boston Center
Thu 09:57:40 PM 41.8939 -72.5711 232° Southwest 372 428 34,000  Level Boston Center
Thu 09:58:40 PM 41.8250 -72.6853 231° Southwest 372 428 34,000  Level Boston Center
Thu 09:59:40 PM 41.7664 -72.7825 231° Southwest 372 428 34,000  Level Boston Center
Thu 10:00:40 PM 41.7033 -72.8906 232° Southwest 372 428 34,000  Level Boston Center
Thu 10:01:40 PM 41.6383 -72.9983 231° Southwest 372 428 34,000  Level Boston Center
Thu 10:02:40 PM 41.5731 -73.1033 230° Southwest 372 428 34,000  Level Boston Center
Thu 10:03:40 PM 41.5119 -73.2081 232° Southwest 372 428 34,000  Level Boston Center
Thu 10:04:40 PM 41.4489 -73.3125 231° Southwest 372 428 34,000  Level Boston Center
Thu 10:06:17 PM 41.3386 -73.4903 230° Southwest 364 419 34,000  Level New York Center
Thu 10:07:17 PM 41.2756 -73.5981 232° Southwest 370 426 34,000  Level New York Center
Thu 10:08:16 PM 41.2106 -73.7028 230° Southwest 370 426 34,000  Level New York Center
Thu 10:09:15 PM 41.1475 -73.8103 232° Southwest 370 426 34,000  Level New York Center
Thu 10:10:15 PM 41.0842 -73.9175 232° Southwest 370 426 34,000  Level New York Center
Thu 10:11:15 PM 41.0211 -74.0219 231° Southwest 370 426 34,000  Level New York Center
Thu 10:12:15 PM 40.9578 -74.1286 232° Southwest 370 426 34,000 -800 Level New York Center
Thu 10:13:15 PM 40.8967 -74.2244 230° Southwest 377 434 32,400 -2,200 Descending New York Center
Thu 10:14:15 PM 40.8331 -74.3256 230° Southwest 377 434 29,600 -2,200 Descending New York Center
Thu 10:15:15 PM 40.7739 -74.4264 232° Southwest 365 420 28,000 -793 Descending New York Center
Thu 10:16:16 PM 40.7167 -74.5219 232° Southwest 354 407 28,000  Level New York Center
Thu 10:17:15 PM 40.6572 -74.6200 231° Southwest 354 407 28,000 -942 Level New York Center
Thu 10:18:17 PM 40.6181 -74.7300 245° Southwest 344 396 26,100 -1,918 Descending New York Center
Thu 10:19:17 PM 40.5831 -74.8453 248° West 339 390 24,100 -2,017 Descending New York Center
Thu 10:20:16 PM 40.5478 -74.9553 247° West 334 384 22,100 -2,000 Descending New York Center
Thu 10:21:17 PM 40.5067 -75.0592 243° Southwest 329 379 20,100 -1,983 Descending New York Center
Thu 10:22:17 PM 40.4350 -75.1339 218° Southwest 321 369 18,100 -1,068 Descending New York Center
Thu 10:23:15 PM 40.3636 -75.2083 218° Southwest 321 369 18,000 -51 Descending New York Center
Thu 10:24:15 PM 40.2875 -75.2906 220° Southwest 333 383 18,000  Level New York Center
Thu 10:25:16 PM 40.2158 -75.3647 218° Southwest 333 383 18,000  Level New York Center
Thu 10:26:16 PM 40.1528 -75.4283 218° Southwest 333 383 18,000  Level New York Center
Thu 10:27:16 PM 40.0831 -75.5050 220° Southwest 333 383 18,000  Level New York Center
Thu 10:28:17 PM 40.0114 -75.5761 217° Southwest 333 383 18,000  Level New York Center
Thu 10:29:15 PM 39.9417 -75.6497 219° Southwest 333 383 18,000  Level New York Center
Thu 10:30:16 PM 39.8858 -75.7406 231° Southwest 328 377 18,000 -928 Level New York Center
Thu 10:32:16 PM 39.7833 -75.9500 238° Southwest 316 364 15,200 -1,621 Descending Potomac TRACON
Thu 10:33:10 PM 39.7333 -76.0167 226° Southwest 306 352 13,300 -1,600 Descending Potomac TRACON
Thu 10:34:16 PM 39.6833 -76.1167 237° Southwest 284 327 12,000 -1,143 Descending Potomac TRACON
Thu 10:35:16 PM 39.6167 -76.1833 218° Southwest 281 323 10,900 -1,300 Descending Potomac TRACON
Thu 10:36:16 PM 39.5500 -76.2333 210° Southwest 268 308 9,400 -1,650 Descending Potomac TRACON
Thu 10:37:16 PM 39.5000 -76.2833 218° Southwest 272 313 7,600 -1,636 Descending Potomac TRACON
Thu 10:38:17 PM 39.4333 -76.3333 210° Southwest 265 305 6,100 -1,289 Descending Potomac TRACON
Thu 10:39:17 PM 39.3667 -76.3833 210° Southwest 256 295 5,000 -1,150 Descending Potomac TRACON
Thu 10:40:17 PM 39.3000 -76.4000 191° South 242 278 3,800 -1,000 Descending Potomac TRACON
Thu 10:41:17 PM 39.2333 -76.4167 191° South 232 267 3,000 -400 Descending Potomac TRACON
Thu 10:42:17 PM 39.1833 -76.4167 180° South 215 247 3,000 -190 Level Potomac TRACON
Thu 10:43:23 PM 39.1333 -76.4667 218° Southwest 199 229 2,600 -364 Descending Potomac TRACON

Login

Don't have an account? Register now (free) for customized features, flight alerts, and more!